Time;durP1;ratioP1;P1;durP2;ratioP2;P2;SDS_P1;SDS_P2;PMS_P1;PMS_P2;Temp;Humidity;BMP_temperature;BMP_pressure;BME280_temperature;BME280_humidity;BME280_pressure;Samples;Min_cycle;Max_cycle;Signal;HPM_P1;HPM_P2
2021/11/04 00:00:23;;;;;;;;;;;;;;;22.28;52.25;100311.09;2092173;28;842;-59
2021/11/04 00:01:24;;;;;;;;;;;;;;;22.29;53.00;100307.44;2091988;28;977;-59
2021/11/04 00:02:24;;;;;;;;;;;;;;;22.34;51.76;100315.31;2091959;28;999;-58
2021/11/04 00:03:24;;;;;;;;;;;;;;;22.28;52.54;100311.09;2092212;28;964;-59
2021/11/04 00:04:25;;;;;;;;;;;;;;;22.30;51.76;100314.59;2092294;28;775;-59
2021/11/04 00:05:25;;;;;;;;;;;;;;;22.24;52.07;100314.91;2092198;28;862;-59
2021/11/04 00:06:26;;;;;;;;;;;;;;;22.28;53.38;100315.59;2092154;28;1295;-59
2021/11/04 00:07:26;;;;;;;;;;;;;;;22.25;50.78;100316.66;2092151;28;1141;-58
2021/11/04 00:08:26;;;;;;;;;;;;;;;22.24;52.72;100314.91;2092206;28;803;-59
2021/11/04 00:09:26;;;;;;;;;;;;;;;22.27;52.43;100320.16;2091984;28;802;-57
2021/11/04 00:10:26;;;;;;;;;;;;;;;22.27;51.32;100328.22;2092123;28;989;-60
2021/11/04 00:11:27;;;;;;;;;;;;;;;22.26;51.90;100325.59;2092091;28;1906;-58
2021/11/04 00:12:27;;;;;;;;;;;;;;;22.23;51.65;100321.25;2092013;28;826;-58
2021/11/04 00:13:27;;;;;;;;;;;;;;;22.21;52.37;100332.09;2092137;28;901;-59
2021/11/04 00:14:27;;;;;;;;;;;;;;;22.11;52.15;100330.78;2092091;28;1052;-58
2021/11/04 00:15:28;;;;;;;;;;;;;;;22.17;52.51;100327.78;2092036;28;683;-58
2021/11/04 00:16:28;;;;;;;;;;;;;;;22.18;53.92;100334.06;2092023;28;819;-59
2021/11/04 00:17:28;;;;;;;;;;;;;;;22.17;52.07;100327.78;2091990;28;767;-59
2021/11/04 00:18:28;;;;;;;;;;;;;;;22.18;51.83;100325.97;2092017;28;812;-58
2021/11/04 00:19:29;;;;;;;;;;;;;;;22.11;52.03;100327.22;2092125;28;1028;-59
2021/11/04 00:20:29;;;;;;;;;;;;;;;22.16;51.70;100326.03;2091985;28;866;-59
2021/11/04 00:21:29;;;;;;;;;;;;;;;22.16;52.11;100331.44;2092049;28;786;-59
2021/11/04 00:22:29;;;;;;;;;;;;;;;22.12;51.45;100324.44;2091999;28;1032;-58
2021/11/04 00:23:30;;;;;;;;;;;;;;;22.15;52.21;100329.69;2092017;28;834;-59
2021/11/04 00:24:30;;;;;;;;;;;;;;;22.11;52.49;100332.63;2092014;28;822;-58
2021/11/04 00:25:31;;;;;;;;;;;;;;;22.09;51.98;100327.28;2091750;28;795;-59
2021/11/04 00:26:31;;;;;;;;;;;;;;;22.13;52.46;100334.28;2091967;28;1051;-59
2021/11/04 00:27:31;;;;;;;;;;;;;;;22.10;52.28;100330.88;2092032;28;796;-59
2021/11/04 00:28:32;;;;;;;;;;;;;;;22.11;54.24;100332.63;2091963;28;904;-59
2021/11/04 00:29:32;;;;;;;;;;;;;;;22.06;51.78;100336.41;2091964;28;976;-58
2021/11/04 00:30:32;;;;;;;;;;;;;;;22.09;53.24;100338.06;2091986;28;1014;-58
2021/11/04 00:31:33;;;;;;;;;;;;;;;22.03;53.76;100336.56;2091843;28;2009;-58
2021/11/04 00:32:33;;;;;;;;;;;;;;;21.97;52.19;100328.75;2091911;28;964;-59
2021/11/04 00:33:35;;;;;;;;;;;;;;;22.02;53.12;100339.34;2092013;28;823;-58
2021/11/04 00:34:35;;;;;;;;;;;;;;;22.08;51.96;100339.00;2091951;28;949;-59
2021/11/04 00:35:35;;;;;;;;;;;;;;;22.06;52.04;100344.50;2091981;28;793;-58
2021/11/04 00:36:35;;;;;;;;;;;;;;;22.10;53.15;100347.91;2091944;28;977;-60
2021/11/04 00:37:35;;;;;;;;;;;;;;;22.08;52.53;100349.81;2090007;28;1189;-59
2021/11/04 00:38:36;;;;;;;;;;;;;;;22.05;51.90;100350.84;2082811;28;776;-59
2021/11/04 00:39:36;;;;;;;;;;;;;;;22.09;50.96;100346.16;2083673;28;819;-58
2021/11/04 00:40:36;;;;;;;;;;;;;;;22.02;52.53;100350.97;2083623;28;949;-59
2021/11/04 00:41:36;;;;;;;;;;;;;;;22.02;53.67;100353.69;2083592;28;1036;-59
2021/11/04 00:42:36;;;;;;;;;;;;;;;22.00;52.12;100350.19;2083652;28;921;-58
2021/11/04 00:43:37;;;;;;;;;;;;;;;22.00;51.16;100347.47;2083560;28;834;-59
2021/11/04 00:44:37;;;;;;;;;;;;;;;21.99;52.97;100347.56;2083614;28;790;-59
2021/11/04 00:45:37;;;;;;;;;;;;;;;21.96;53.38;100342.31;2083620;28;839;-59
2021/11/04 00:46:37;;;;;;;;;;;;;;;21.98;52.20;100352.06;2083366;28;1205;-58
2021/11/04 00:47:38;;;;;;;;;;;;;;;21.95;51.94;100348.66;2083646;28;1031;-59
2021/11/04 00:48:38;;;;;;;;;;;;;;;21.97;52.15;100350.31;2083533;28;1435;-58
2021/11/04 00:49:38;;;;;;;;;;;;;;;22.00;54.33;100352.88;2083333;28;881;-59
2021/11/04 00:50:38;;;;;;;;;;;;;;;21.97;50.96;100352.16;2083585;28;1027;-59
2021/11/04 00:51:38;;;;;;;;;;;;;;;21.97;51.74;100352.16;2083659;28;1965;-58
2021/11/04 00:52:39;;;;;;;;;;;;;;;21.94;53.05;100352.31;2083405;28;874;-58
2021/11/04 00:53:39;;;;;;;;;;;;;;;21.97;52.12;100357.56;2083558;28;1270;-60
2021/11/04 00:54:39;;;;;;;;;;;;;;;21.90;52.87;100354.25;2083338;28;1107;-58
2021/11/04 00:55:39;;;;;;;;;;;;;;;21.96;52.51;100359.34;2083336;28;766;-58
2021/11/04 00:56:39;;;;;;;;;;;;;;;21.99;52.05;100361.06;2083373;28;1185;-59
2021/11/04 00:57:40;;;;;;;;;;;;;;;21.99;51.89;100358.34;2083543;28;965;-58
2021/11/04 00:58:40;;;;;;;;;;;;;;;21.89;52.50;100357.88;2083437;28;869;-58
2021/11/04 00:59:40;;;;;;;;;;;;;;;21.90;52.57;100356.94;2083529;28;740;-58
2021/11/04 01:00:41;;;;;;;;;;;;;;;21.79;53.47;100360.16;2083091;28;973;-59
2021/11/04 01:01:41;;;;;;;;;;;;;;;21.84;52.08;100359.91;2083506;28;1176;-58
2021/11/04 01:02:41;;;;;;;;;;;;;;;21.82;53.26;100357.31;2083422;28;897;-59
2021/11/04 01:03:41;;;;;;;;;;;;;;;21.88;52.06;100361.53;2083498;28;763;-59
2021/11/04 01:04:42;;;;;;;;;;;;;;;21.89;51.96;100365.97;2083488;28;1008;-58
2021/11/04 01:05:42;;;;;;;;;;;;;;;21.89;52.56;100366.88;2083487;28;770;-59
2021/11/04 01:06:42;;;;;;;;;;;;;;;21.94;52.33;100365.78;2083433;28;822;-59
2021/11/04 01:07:43;;;;;;;;;;;;;;;21.94;51.69;100363.94;2083611;28;838;-58
2021/11/04 01:08:43;;;;;;;;;;;;;;;21.90;52.19;100367.72;2083240;28;934;-58
2021/11/04 01:09:43;;;;;;;;;;;;;;;21.77;53.03;100362.94;2083430;28;1025;-59
2021/11/04 01:10:44;;;;;;;;;;;;;;;21.82;52.97;100376.19;2083298;28;1192;-59
2021/11/04 01:11:44;;;;;;;;;;;;;;;21.76;53.96;100373.75;2083112;28;1906;-59
2021/11/04 01:12:44;;;;;;;;;;;;;;;21.75;53.75;100372.00;2083381;28;1035;-59
2021/11/04 01:13:45;;;;;;;;;;;;;;;21.86;52.56;100371.50;2083374;28;1071;-59
2021/11/04 01:14:45;;;;;;;;;;;;;;;21.91;52.01;100375.75;2083066;28;1315;-58
2021/11/04 01:15:45;;;;;;;;;;;;;;;21.89;52.93;100374.06;2083433;28;688;-59
2021/11/04 01:16:45;;;;;;;;;;;;;;;21.86;52.44;100380.50;2083389;28;760;-58
2021/11/04 01:17:45;;;;;;;;;;;;;;;21.83;52.83;100375.25;2083470;28;862;-59
2021/11/04 01:18:46;;;;;;;;;;;;;;;21.83;51.72;100372.53;2083424;28;1024;-58
2021/11/04 01:19:46;;;;;;;;;;;;;;;21.78;52.96;100371.88;2083400;28;979;-58
2021/11/04 01:20:46;;;;;;;;;;;;;;;21.81;52.38;100382.53;2083452;28;759;-58
2021/11/04 01:21:47;;;;;;;;;;;;;;;21.79;52.86;100370.94;2083339;28;956;-58
2021/11/04 01:22:48;;;;;;;;;;;;;;;21.80;53.10;100377.19;2082972;28;771;-58
2021/11/04 01:23:48;;;;;;;;;;;;;;;21.82;52.22;100380.69;2083419;28;858;-59
2021/11/04 01:24:48;;;;;;;;;;;;;;;21.72;53.72;100381.13;2083299;28;834;-58
2021/11/04 01:25:49;;;;;;;;;;;;;;;21.77;52.81;100371.03;2083053;28;780;-58
2021/11/04 01:26:49;;;;;;;;;;;;;;;21.84;51.39;100381.50;2083302;28;807;-58
2021/11/04 01:27:49;;;;;;;;;;;;;;;21.76;52.57;100382.75;2083327;28;741;-58
2021/11/04 01:28:49;;;;;;;;;;;;;;;21.81;52.83;100387.03;2083012;28;759;-59
2021/11/04 01:29:50;;;;;;;;;;;;;;;21.79;52.92;100384.41;2083363;28;1016;-58
2021/11/04 01:30:50;;;;;;;;;;;;;;;21.77;51.68;100387.19;2083274;28;977;-60
2021/11/04 01:31:50;;;;;;;;;;;;;;;21.77;52.93;100394.38;2083081;28;1953;-58
2021/11/04 01:32:50;;;;;;;;;;;;;;;21.77;52.30;100391.69;2083236;28;792;-58
2021/11/04 01:33:50;;;;;;;;;;;;;;;21.80;52.25;100390.66;2083297;28;822;-58
2021/11/04 01:34:50;;;;;;;;;;;;;;;21.82;51.75;100391.47;2083328;28;876;-58
2021/11/04 01:35:50;;;;;;;;;;;;;;;21.73;53.19;100396.38;2083262;28;847;-58
2021/11/04 01:36:51;;;;;;;;;;;;;;;21.69;52.26;100402.84;2083219;28;1000;-58
2021/11/04 01:37:51;;;;;;;;;;;;;;;21.77;52.65;100383.59;2087197;28;1467;-58
2021/11/04 01:38:51;;;;;;;;;;;;;;;21.74;53.31;100392.72;2091348;28;829;-58
2021/11/04 01:39:51;;;;;;;;;;;;;;;21.74;52.33;100387.34;2091544;28;1278;-58
2021/11/04 01:40:51;;;;;;;;;;;;;;;21.64;52.66;100407.56;2091436;28;912;-58
2021/11/04 01:41:52;;;;;;;;;;;;;;;21.74;52.71;100403.50;2091103;28;927;-59
2021/11/04 01:42:52;;;;;;;;;;;;;;;21.77;52.97;100397.97;2091439;28;1043;-58
2021/11/04 01:43:53;;;;;;;;;;;;;;;21.77;52.45;100397.97;2091495;28;834;-59
2021/11/04 01:44:53;;;;;;;;;;;;;;;21.77;52.85;100397.97;2091449;28;1016;-58
2021/11/04 01:45:53;;;;;;;;;;;;;;;21.74;52.53;100410.69;2091484;28;670;-59
2021/11/04 01:46:53;;;;;;;;;;;;;;;21.73;53.05;100406.25;2091266;28;786;-58
2021/11/04 01:47:54;;;;;;;;;;;;;;;21.75;51.31;100398.97;2091475;28;788;-58
2021/11/04 01:48:54;;;;;;;;;;;;;;;21.70;53.15;100404.59;2091438;28;889;-58
2021/11/04 01:49:54;;;;;;;;;;;;;;;21.61;52.99;100408.50;2091046;28;806;-58
2021/11/04 01:50:54;;;;;;;;;;;;;;;21.68;52.84;100403.78;2091343;28;794;-58
2021/11/04 01:51:55;;;;;;;;;;;;;;;21.68;53.44;100400.19;2091407;28;1937;-58
2021/11/04 01:52:55;;;;;;;;;;;;;;;21.72;52.18;100404.50;2091304;28;1027;-59
2021/11/04 01:53:56;;;;;;;;;;;;;;;21.71;52.59;100408.13;2091432;28;826;-58
2021/11/04 01:54:56;;;;;;;;;;;;;;;21.72;51.68;100405.41;2091426;28;839;-58
2021/11/04 01:55:57;;;;;;;;;;;;;;;21.76;51.89;100398.91;2091283;28;922;-58
2021/11/04 01:56:57;;;;;;;;;;;;;;;21.73;52.69;100400.88;2091259;28;1256;-58
2021/11/04 01:57:57;;;;;;;;;;;;;;;21.70;52.54;100403.69;2091462;28;968;-58
2021/11/04 01:58:58;;;;;;;;;;;;;;;21.62;53.94;100407.59;2091455;28;771;-59
2021/11/04 01:59:58;;;;;;;;;;;;;;;21.67;52.18;100410.13;2091409;28;971;-58
2021/11/04 02:00:58;;;;;;;;;;;;;;;21.67;54.04;100412.81;2089743;28;2166;-58
2021/11/04 02:02:13;;;;;;;;;;;;;;;21.62;53.52;100407.59;2091440;28;780;-58
2021/11/04 02:03:17;;;;;;;;;;;;;;;21.58;53.38;100415.88;2091373;28;810;-59
2021/11/04 02:04:22;;;;;;;;;;;;;;;21.64;52.38;100412.94;2091338;28;787;-58
2021/11/04 02:05:26;;;;;;;;;;;;;;;21.66;52.58;100413.75;2091491;28;771;-58
2021/11/04 02:06:33;;;;;;;;;;;;;;;21.70;51.92;100422.56;2091205;28;1295;-58
2021/11/04 02:07:39;;;;;;;;;;;;;;;21.67;52.75;100418.19;2091428;28;805;-58
2021/11/04 02:08:44;;;;;;;;;;;;;;;21.66;53.02;100420.94;2091392;28;1321;-58
2021/11/04 02:09:47;;;;;;;;;;;;;;;21.69;52.70;100420.81;2091135;28;748;-59
2021/11/04 02:10:50;;;;;;;;;;;;;;;21.72;53.27;100426.06;2091317;28;790;-58
2021/11/04 02:12:01;;;;;;;;;;;;;;;21.64;53.27;100426.44;2091239;28;1918;-59
2021/11/04 02:13:07;;;;;;;;;;;;;;;21.62;53.45;100431.00;2091319;28;866;-58
2021/11/04 02:14:11;;;;;;;;;;;;;;;21.67;51.19;100428.97;2091383;28;1024;-58
2021/11/04 02:15:11;;;;;;;;;;;;;;;21.65;53.61;100424.59;2091285;28;896;-58
2021/11/04 02:16:13;;;;;;;;;;;;;;;21.64;53.04;100431.81;2091352;28;805;-59
2021/11/04 02:17:15;;;;;;;;;;;;;;;21.67;53.02;100430.78;2091265;28;870;-58
2021/11/04 02:18:17;;;;;;;;;;;;;;;21.60;52.25;100424.78;2091316;28;810;-59
2021/11/04 02:19:21;;;;;;;;;;;;;;;21.64;51.66;100431.81;2091424;28;771;-58
2021/11/04 02:20:37;;;;;;;;;;;;;;;21.56;53.26;100428.53;2091003;28;842;-59
2021/11/04 02:21:58;;;;;;;;;;;;;;;21.60;53.25;100420.25;2091387;28;985;-58
2021/11/04 02:23:01;;;;;;;;;;;;;;;21.57;52.38;100414.97;2091287;28;968;-59
2021/11/04 02:24:19;;;;;;;;;;;;;;;21.58;52.89;100421.28;2091294;28;873;-58
2021/11/04 02:25:22;;;;;;;;;;;;;;;21.54;53.18;100420.50;2091354;28;873;-59
2021/11/04 02:26:23;;;;;;;;;;;;;;;21.61;53.16;100423.81;2091288;28;905;-58
2021/11/04 02:27:23;;;;;;;;;;;;;;;21.54;53.20;100420.50;2091453;28;826;-59
2021/11/04 02:28:24;;;;;;;;;;;;;;;21.53;53.00;100428.69;2091230;28;949;-58
2021/11/04 02:29:25;;;;;;;;;;;;;;;21.59;52.91;100429.28;2091281;28;853;-59
2021/11/04 02:30:26;;;;;;;;;;;;;;;21.57;54.16;100425.75;2091285;28;968;-58
2021/11/04 02:31:26;;;;;;;;;;;;;;;21.44;53.69;100430.81;2091204;28;2005;-58
2021/11/04 02:32:26;;;;;;;;;;;;;;;21.55;52.66;100419.56;2091030;28;775;-58
2021/11/04 02:33:27;;;;;;;;;;;;;;;21.62;53.00;100428.31;2091116;28;984;-59
2021/11/04 02:34:28;;;;;;;;;;;;;;;21.56;52.30;100420.47;2091238;28;810;-58
2021/11/04 02:35:29;;;;;;;;;;;;;;;21.61;53.26;100418.44;2091319;28;989;-58
2021/11/04 02:36:29;;;;;;;;;;;;;;;21.55;53.25;100424.09;2091267;28;752;-58
2021/11/04 02:37:30;;;;;;;;;;;;;;;21.62;52.30;100418.38;2091233;28;1190;-58
2021/11/04 02:38:31;;;;;;;;;;;;;;;21.58;53.32;100415.88;2091227;28;1051;-58
2021/11/04 02:39:32;;;;;;;;;;;;;;;21.47;53.71;100414.53;2091303;28;1130;-58
2021/11/04 02:40:32;;;;;;;;;;;;;;;21.51;53.00;100417.09;2091275;28;802;-59
2021/11/04 02:41:33;;;;;;;;;;;;;;;21.46;53.56;100425.38;2090317;28;862;-58
2021/11/04 02:42:34;;;;;;;;;;;;;;;21.57;53.10;100419.50;2090644;28;786;-59
2021/11/04 02:43:35;;;;;;;;;;;;;;;21.51;52.92;100417.09;2091305;28;779;-58
2021/11/04 02:44:35;;;;;;;;;;;;;;;21.38;53.93;100424.84;2091190;28;783;-58
2021/11/04 02:45:36;;;;;;;;;;;;;;;21.43;52.70;100423.69;2091263;28;818;-58
2021/11/04 02:46:36;;;;;;;;;;;;;;;21.49;52.52;100417.13;2091195;28;809;-59
2021/11/04 02:47:37;;;;;;;;;;;;;;;21.60;54.13;100419.38;2091262;28;790;-58
2021/11/04 02:48:38;;;;;;;;;;;;;;;21.52;54.41;100418.84;2091258;28;826;-58
2021/11/04 02:49:39;;;;;;;;;;;;;;;21.49;53.13;100422.53;2090982;28;1224;-58
2021/11/04 02:50:39;;;;;;;;;;;;;;;21.46;54.06;100426.25;2091217;28;903;-60
2021/11/04 02:51:39;;;;;;;;;;;;;;;21.43;53.03;100429.06;2091190;28;1936;-58
2021/11/04 02:52:39;;;;;;;;;;;;;;;21.47;53.41;100429.84;2091218;28;826;-58
2021/11/04 02:53:43;;;;;;;;;;;;;;;21.56;54.38;100424.00;2091251;28;965;-58
2021/11/04 02:54:50;;;;;;;;;;;;;;;21.58;52.69;100429.34;2091104;28;1112;-58
2021/11/04 02:55:51;;;;;;;;;;;;;;;21.46;52.56;100428.94;2091181;28;774;-58
2021/11/04 02:56:52;;;;;;;;;;;;;;;21.50;53.72;100428.81;2091036;28;1153;-58
2021/11/04 02:57:52;;;;;;;;;;;;;;;21.49;53.06;100433.31;2091197;28;974;-58
2021/11/04 02:58:57;;;;;;;;;;;;;;;21.53;51.73;100429.53;2091169;28;956;-57
2021/11/04 02:59:58;;;;;;;;;;;;;;;21.39;54.65;100430.16;2090819;28;763;-59
2021/11/04 03:00:59;;;;;;;;;;;;;;;21.41;53.59;100433.66;2091144;28;749;-58
2021/11/04 03:02:00;;;;;;;;;;;;;;;21.39;54.72;100431.97;2091983;28;885;-58
2021/11/04 03:03:00;;;;;;;;;;;;;;;21.40;53.88;100434.59;2092594;28;976;-58
2021/11/04 03:04:00;;;;;;;;;;;;;;;21.40;54.10;100439.97;2092663;28;818;-58
2021/11/04 03:05:00;;;;;;;;;;;;;;;21.41;53.75;100441.72;2092507;28;968;-58
2021/11/04 03:06:02;;;;;;;;;;;;;;;21.51;52.04;100435.94;2092655;28;976;-58
2021/11/04 03:07:02;;;;;;;;;;;;;;;21.40;54.49;100439.13;2092653;28;842;-58
2021/11/04 03:08:03;;;;;;;;;;;;;;;21.46;53.11;100439.72;2092599;28;842;-58
2021/11/04 03:09:03;;;;;;;;;;;;;;;21.43;53.71;100439.84;2092703;28;776;-59
2021/11/04 03:10:04;;;;;;;;;;;;;;;21.48;53.61;100439.66;2092608;28;779;-58
2021/11/04 03:11:04;;;;;;;;;;;;;;;21.40;53.50;100445.38;2092072;28;1973;-58
2021/11/04 03:12:05;;;;;;;;;;;;;;;21.46;52.91;100441.56;2092635;28;818;-58
2021/11/04 03:13:06;;;;;;;;;;;;;;;21.48;52.81;100442.38;2092557;28;885;-58
2021/11/04 03:14:06;;;;;;;;;;;;;;;21.44;53.28;100435.34;2092650;28;762;-58
2021/11/04 03:15:11;;;;;;;;;;;;;;;21.45;53.85;100437.97;2092579;28;960;-59
2021/11/04 03:16:12;;;;;;;;;;;;;;;21.52;52.94;100437.69;2092582;28;770;-58
2021/11/04 03:17:13;;;;;;;;;;;;;;;21.51;52.92;100442.19;2092421;28;840;-58
2021/11/04 03:18:13;;;;;;;;;;;;;;;21.47;53.54;100443.31;2092598;28;806;-58
2021/11/04 03:19:15;;;;;;;;;;;;;;;21.42;53.13;100450.72;2092555;28;870;-59
2021/11/04 03:20:19;;;;;;;;;;;;;;;21.39;53.20;100443.63;2092532;28;1032;-58
2021/11/04 03:21:19;;;;;;;;;;;;;;;21.40;53.95;100434.59;2092566;28;1039;-58
2021/11/04 03:22:20;;;;;;;;;;;;;;;21.50;52.39;100443.16;2092184;28;980;-58
2021/11/04 03:23:21;;;;;;;;;;;;;;;21.42;53.64;100440.78;2092568;28;972;-58
2021/11/04 03:24:23;;;;;;;;;;;;;;;21.35;53.54;100447.38;2092517;28;1035;-58
2021/11/04 03:25:23;;;;;;;;;;;;;;;21.35;53.30;100451.91;2092489;28;1060;-59
2021/11/04 03:26:26;;;;;;;;;;;;;;;21.45;53.42;100454.13;2092478;28;995;-58
2021/11/04 03:27:26;;;;;;;;;;;;;;;21.45;52.61;100445.19;2092215;28;1269;-58
2021/11/04 03:28:26;;;;;;;;;;;;;;;21.45;54.37;100454.13;2092570;28;917;-58
2021/11/04 03:29:31;;;;;;;;;;;;;;;21.41;53.68;100448.97;2092483;28;913;-58
2021/11/04 03:30:34;;;;;;;;;;;;;;;21.39;54.40;100458.94;2092070;28;861;-58
2021/11/04 03:31:36;;;;;;;;;;;;;;;21.36;54.38;100450.97;2092348;28;1951;-58
2021/11/04 03:32:37;;;;;;;;;;;;;;;21.52;54.31;100454.72;2092488;28;984;-58
2021/11/04 03:33:39;;;;;;;;;;;;;;;21.50;53.79;100453.06;2092428;28;1023;-58
2021/11/04 03:34:39;;;;;;;;;;;;;;;21.48;53.24;100450.44;2092401;28;842;-58
2021/11/04 03:35:41;;;;;;;;;;;;;;;21.53;52.50;100459.19;2092429;28;980;-58
2021/11/04 03:36:42;;;;;;;;;;;;;;;21.37;53.97;100458.13;2092352;28;1168;-58
2021/11/04 03:37:44;;;;;;;;;;;;;;;21.38;54.04;100458.03;2088988;28;1441;-57
2021/11/04 03:38:46;;;;;;;;;;;;;;;21.44;53.41;100462.31;2083300;28;846;-58
2021/11/04 03:39:46;;;;;;;;;;;;;;;21.53;52.82;100471.78;2084160;28;997;-58
2021/11/04 03:40:46;;;;;;;;;;;;;;;21.44;52.85;100463.16;2084125;28;888;-58
2021/11/04 03:41:47;;;;;;;;;;;;;;;21.45;53.57;100464.91;2084172;28;878;-58
2021/11/04 03:42:49;;;;;;;;;;;;;;;21.39;52.81;100465.19;2084112;28;795;-58
2021/11/04 03:43:49;;;;;;;;;;;;;;;21.43;53.55;100464.09;2083949;28;795;-58
2021/11/04 03:44:49;;;;;;;;;;;;;;;21.46;53.56;100468.50;2084073;28;977;-58
2021/11/04 03:45:50;;;;;;;;;;;;;;;21.56;53.19;100468.97;2084202;28;870;-58
2021/11/04 03:46:51;;;;;;;;;;;;;;;21.52;53.35;100467.34;2083704;28;1004;-58
2021/11/04 03:47:52;;;;;;;;;;;;;;;21.42;53.59;100466.88;2084006;28;1170;-57
2021/11/04 03:48:52;;;;;;;;;;;;;;;21.39;52.66;100465.19;2084080;28;996;-58
2021/11/04 03:49:53;;;;;;;;;;;;;;;21.43;53.00;100471.31;2084161;28;842;-58
2021/11/04 03:50:54;;;;;;;;;;;;;;;21.40;53.69;100468.75;2084061;28;948;-58
2021/11/04 03:51:55;;;;;;;;;;;;;;;21.38;52.63;100468.81;2083838;28;1953;-59
2021/11/04 03:52:55;;;;;;;;;;;;;;;21.41;53.05;100471.38;2083996;28;822;-58
2021/11/04 03:53:55;;;;;;;;;;;;;;;21.37;54.39;100474.28;2084062;28;969;-58
2021/11/04 03:54:56;;;;;;;;;;;;;;;21.38;53.26;100465.25;2083918;28;877;-58
2021/11/04 03:55:56;;;;;;;;;;;;;;;21.51;54.27;100474.53;2084054;28;925;-59
2021/11/04 03:56:57;;;;;;;;;;;;;;;21.58;54.21;100470.63;2083813;28;1320;-58
2021/11/04 03:57:57;;;;;;;;;;;;;;;21.43;53.70;100479.41;2083697;28;826;-58
2021/11/04 03:58:58;;;;;;;;;;;;;;;21.46;52.02;100474.75;2084042;28;837;-59
2021/11/04 03:59:58;;;;;;;;;;;;;;;21.41;53.58;100481.28;2084116;28;783;-58
2021/11/04 04:00:58;;;;;;;;;;;;;;;21.47;53.11;100475.66;2083901;28;842;-58
2021/11/04 04:01:58;;;;;;;;;;;;;;;21.41;54.66;100478.59;2084011;28;783;-58
2021/11/04 04:02:59;;;;;;;;;;;;;;;21.31;55.21;100483.47;2083899;28;922;-58
2021/11/04 04:04:00;;;;;;;;;;;;;;;21.35;53.19;100482.41;2083786;28;830;-59
2021/11/04 04:05:00;;;;;;;;;;;;;;;21.38;54.14;100487.66;2083941;28;972;-58
2021/11/04 04:06:02;;;;;;;;;;;;;;;21.34;54.82;100483.34;2084031;28;763;-58
2021/11/04 04:07:02;;;;;;;;;;;;;;;21.41;54.21;100484.00;2083694;28;794;-58
2021/11/04 04:08:02;;;;;;;;;;;;;;;21.33;53.97;100489.69;2083943;28;878;-57
2021/11/04 04:09:04;;;;;;;;;;;;;;;21.32;54.78;100496.00;2083809;28;1351;-59
2021/11/04 04:10:05;;;;;;;;;;;;;;;21.32;53.78;100494.22;2083888;28;985;-58
2021/11/04 04:11:05;;;;;;;;;;;;;;;21.38;53.09;100479.59;2083908;28;961;-58
2021/11/04 04:12:05;;;;;;;;;;;;;;;21.41;53.49;100471.38;2083894;28;857;-58
2021/11/04 04:13:06;;;;;;;;;;;;;;;21.46;52.86;100468.50;2083273;28;768;-59
2021/11/04 04:14:06;;;;;;;;;;;;;;;21.32;54.03;100466.38;2083321;28;933;-58
2021/11/04 04:15:06;;;;;;;;;;;;;;;;;;2083912;28;965;-58
2021/11/04 04:16:06;;;;;;;;;;;;;;;21.32;53.85;100475.34;2083887;28;985;-58
2021/11/04 04:17:06;;;;;;;;;;;;;;;21.41;53.27;100470.50;2083858;28;960;-58
2021/11/04 04:18:06;;;;;;;;;;;;;;;21.40;53.25;100472.31;2083830;28;826;-58
2021/11/04 04:19:07;;;;;;;;;;;;;;;21.46;53.04;100473.88;2083858;28;1004;-58
2021/11/04 04:20:07;;;;;;;;;;;;;;;21.30;54.95;100477.22;2083864;28;1018;-59
2021/11/04 04:21:07;;;;;;;;;;;;;;;21.35;54.00;100479.72;2083901;28;871;-58
2021/11/04 04:22:07;;;;;;;;;;;;;;;21.36;52.46;100478.78;2083569;28;977;-59
2021/11/04 04:23:08;;;;;;;;;;;;;;;21.33;54.77;100471.72;2083790;28;1036;-58
2021/11/04 04:24:08;;;;;;;;;;;;;;;21.40;53.79;100476.84;2083805;28;767;-58
2021/11/04 04:25:08;;;;;;;;;;;;;;;21.39;53.76;100477.78;2083781;28;953;-58
2021/11/04 04:26:08;;;;;;;;;;;;;;;21.30;53.23;100477.22;2083741;28;969;-58
2021/11/04 04:27:10;;;;;;;;;;;;;;;21.39;53.18;100480.47;2083770;28;1155;-58
2021/11/04 04:28:10;;;;;;;;;;;;;;;21.43;52.96;100482.97;2083789;28;1051;-58
2021/11/04 04:29:10;;;;;;;;;;;;;;;21.41;53.41;100484.00;2083731;28;787;-58
2021/11/04 04:30:11;;;;;;;;;;;;;;;21.37;53.57;100482.38;2083741;28;894;-58
2021/11/04 04:31:11;;;;;;;;;;;;;;;21.34;53.69;100480.66;2083626;28;1894;-58
2021/11/04 04:32:11;;;;;;;;;;;;;;;21.39;54.45;100481.34;2083727;28;747;-58
2021/11/04 04:33:11;;;;;;;;;;;;;;;21.26;55.52;100485.47;2083780;28;1293;-58
2021/11/04 04:34:11;;;;;;;;;;;;;;;21.32;54.53;100486.13;2083730;28;835;-57
2021/11/04 04:35:11;;;;;;;;;;;;;;;21.42;53.58;100483.03;2083726;28;913;-59
2021/11/04 04:36:11;;;;;;;;;;;;;;;21.35;54.52;100481.56;2083737;28;977;-58
2021/11/04 04:37:12;;;;;;;;;;;;;;;21.34;53.63;100486.03;2083655;28;742;-60
2021/11/04 04:38:12;;;;;;;;;;;;;;;21.31;53.52;100488.88;2090472;28;1517;-58
2021/11/04 04:39:12;;;;;;;;;;;;;;;21.40;53.30;100484.94;2091865;28;889;-59
2021/11/04 04:40:12;;;;;;;;;;;;;;;21.44;52.44;100490.09;2091657;28;960;-58
2021/11/04 04:41:12;;;;;;;;;;;;;;;21.43;53.14;100487.50;2091891;28;865;-58
2021/11/04 04:42:12;;;;;;;;;;;;;;;21.37;53.47;100491.31;2091907;28;1015;-58
2021/11/04 04:43:12;;;;;;;;;;;;;;;21.40;54.02;100493.00;2091854;28;1003;-58
2021/11/04 04:44:13;;;;;;;;;;;;;;;21.34;53.74;100494.13;2091852;28;909;-58
2021/11/04 04:45:16;;;;;;;;;;;;;;;21.40;53.77;100488.47;2091788;28;984;-58
2021/11/04 04:46:18;;;;;;;;;;;;;;;21.29;53.90;100496.13;2091557;28;1207;-58
2021/11/04 04:47:18;;;;;;;;;;;;;;;21.35;54.07;100490.50;2091870;28;863;-58
2021/11/04 04:48:18;;;;;;;;;;;;;;;21.34;53.65;100494.13;2091828;28;755;-58
2021/11/04 04:49:18;;;;;;;;;;;;;;;21.39;52.83;100500.19;2091849;28;965;-58
2021/11/04 04:50:18;;;;;;;;;;;;;;;21.44;53.31;100495.50;2091803;28;961;-58
2021/11/04 04:51:18;;;;;;;;;;;;;;;21.40;53.72;100503.78;2091521;28;1885;-58
2021/11/04 04:52:19;;;;;;;;;;;;;;;21.37;53.75;100498.53;2091803;28;933;-59
2021/11/04 04:53:19;;;;;;;;;;;;;;;21.42;52.67;100504.59;2091873;28;834;-57
2021/11/04 04:54:19;;;;;;;;;;;;;;;21.40;53.31;100498.41;2091814;28;788;-59
2021/11/04 04:55:19;;;;;;;;;;;;;;;21.23;53.82;100512.56;2091816;28;1016;-58
2021/11/04 04:56:19;;;;;;;;;;;;;;;21.35;53.12;100511.19;2091603;28;1070;-59
2021/11/04 04:57:23;;;;;;;;;;;;;;;21.33;53.36;100516.63;2091797;28;826;-58
2021/11/04 04:58:24;;;;;;;;;;;;;;;21.34;52.82;100513.00;2091783;28;826;-57
2021/11/04 04:59:24;;;;;;;;;;;;;;;21.25;54.50;100514.25;2091575;28;981;-57
2021/11/04 05:00:24;;;;;;;;;;;;;;;21.27;54.23;100515.06;2091757;28;798;-58
2021/11/04 05:01:24;;;;;;;;;;;;;;;21.37;52.70;100512.84;2091715;28;893;-58
2021/11/04 05:02:25;;;;;;;;;;;;;;;21.46;53.49;100514.31;2091629;28;1067;-58
2021/11/04 05:03:25;;;;;;;;;;;;;;;21.44;52.75;100508.97;2091754;28;862;-58
2021/11/04 05:04:25;;;;;;;;;;;;;;;21.61;53.36;100513.63;2091688;28;846;-57
2021/11/04 05:05:25;;;;;;;;;;;;;;;22.28;50.83;100507.16;2091588;28;957;-58
2021/11/04 05:06:25;;;;;;;;;;;;;;;22.47;49.83;100502.72;2091714;28;1043;-58
2021/11/04 05:07:26;;;;;;;;;;;;;;;22.68;49.97;100504.47;2091725;28;755;-59
2021/11/04 05:08:26;;;;;;;;;;;;;;;22.89;49.04;100500.75;2091712;28;812;-58
2021/11/04 05:09:26;;;;;;;;;;;;;;;22.98;48.57;100501.22;2091774;28;759;-59
2021/11/04 05:10:26;;;;;;;;;;;;;;;22.97;49.58;100503.06;2091655;28;862;-57
2021/11/04 05:11:27;;;;;;;;;;;;;;;23.04;48.85;100506.31;2091547;28;1971;-57
2021/11/04 05:12:27;;;;;;;;;;;;;;;23.17;49.27;100499.38;2091634;28;869;-58
2021/11/04 05:13:27;;;;;;;;;;;;;;;23.26;48.58;100505.31;2091637;28;1031;-58
2021/11/04 05:14:27;;;;;;;;;;;;;;;23.31;47.79;100508.66;2091736;28;994;-58
2021/11/04 05:15:27;;;;;;;;;;;;;;;23.43;48.99;100502.63;2091582;28;972;-59
2021/11/04 05:16:28;;;;;;;;;;;;;;;23.52;48.09;100512.09;2091689;28;976;-59
2021/11/04 05:17:28;;;;;;;;;;;;;;;23.58;48.16;100513.59;2091659;28;755;-59
2021/11/04 05:18:28;;;;;;;;;;;;;;;23.62;48.44;100513.38;2091469;28;976;-59
2021/11/04 05:19:28;;;;;;;;;;;;;;;23.64;46.95;100516.88;2091650;28;838;-59
2021/11/04 05:20:29;;;;;;;;;;;;;;;23.63;48.29;100525.94;2091668;28;878;-60